Time;durP1;ratioP1;P1;durP2;ratioP2;P2;SDS_P1;SDS_P2;PMS_P1;PMS_P2;Temp;Humidity;BMP_temperature;BMP_pressure;BME280_temperature;BME280_humidity;BME280_pressure;Samples;Min_cycle;Max_cycle;Signal;HPM_P1;HPM_P2
2023/02/25 00:01:25;;;;;;;13.82;12.43;;;10.40;99.90;;;;;;4972245;28;20422;-72
2023/02/25 00:03:54;;;;;;;15.43;11.63;;;10.40;99.90;;;;;;4983563;28;20189;-72
2023/02/25 00:06:21;;;;;;;13.23;11.63;;;10.40;99.90;;;;;;4966896;28;20232;-72
2023/02/25 00:08:49;;;;;;;14.00;11.23;;;10.50;99.90;;;;;;4981665;28;21124;-72
2023/02/25 00:11:18;;;;;;;12.17;10.87;;;10.40;99.90;;;;;;4961427;28;20280;-72
2023/02/25 00:13:45;;;;;;;14.97;11.37;;;10.40;99.90;;;;;;4966927;28;20577;-72
2023/02/25 00:16:12;;;;;;;12.50;11.23;;;10.30;99.90;;;;;;4983607;28;20205;-72
2023/02/25 00:18:43;;;;;;;12.90;11.60;;;10.30;99.90;;;;;;4965408;28;20691;-72
2023/02/25 00:21:13;;;;;;;12.77;11.30;;;10.30;99.90;;;;;;4987518;28;20304;-72
2023/02/25 00:23:45;;;;;;;12.80;11.33;;;10.30;99.90;;;;;;4984948;28;20193;-73
2023/02/25 00:26:13;;;;;;;14.27;11.23;;;10.30;99.90;;;;;;4982104;28;20193;-72
2023/02/25 00:28:40;;;;;;;13.13;10.97;;;10.20;99.90;;;;;;4987013;28;20189;-72
2023/02/25 00:31:14;;;;;;;15.20;11.07;;;10.20;99.90;;;;;;4978834;28;20217;-72
2023/02/25 00:33:41;;;;;;;12.30;11.00;;;10.20;99.90;;;;;;4989634;28;20193;-72
2023/02/25 00:36:17;;;;;;;13.10;11.67;;;10.20;99.90;;;;;;4984149;28;21027;-72
2023/02/25 00:38:47;;;;;;;14.33;11.03;;;10.10;99.90;;;;;;4986320;28;20201;-72
2023/02/25 00:41:16;;;;;;;12.47;10.90;;;10.00;99.90;;;;;;4970384;28;20239;-72
2023/02/25 00:43:52;;;;;;;13.37;10.07;;;9.90;99.90;;;;;;4967964;28;20181;-72
2023/02/25 00:46:19;;;;;;;13.63;11.13;;;9.90;99.90;;;;;;4961848;28;20181;-72
2023/02/25 00:48:46;;;;;;;11.70;10.27;;;9.90;99.90;;;;;;4974592;28;20189;-72
2023/02/25 00:51:17;;;;;;;13.37;10.97;;;9.90;99.90;;;;;;4983942;28;20193;-72
2023/02/25 00:53:44;;;;;;;12.63;10.33;;;9.80;99.90;;;;;;4990506;28;20189;-72
2023/02/25 00:56:16;;;;;;;13.13;10.67;;;9.80;99.90;;;;;;4968508;28;20731;-72
2023/02/25 00:58:49;;;;;;;12.53;11.00;;;9.80;99.90;;;;;;4985749;28;20243;-72
2023/02/25 01:01:21;;;;;;;12.73;11.00;;;9.80;99.90;;;;;;4965204;28;20186;-72
2023/02/25 01:03:50;;;;;;;11.93;10.73;;;9.80;99.90;;;;;;4985064;28;20201;-72
2023/02/25 01:06:16;;;;;;;11.37;10.20;;;9.80;99.90;;;;;;4985525;28;20573;-73
2023/02/25 01:08:43;;;;;;;13.10;10.43;;;9.80;99.90;;;;;;4979140;28;20201;-72
2023/02/25 01:11:26;;;;;;;12.50;11.20;;;9.80;99.90;;;;;;4977323;28;20205;-72
2023/02/25 01:13:54;;;;;;;13.47;11.20;;;9.80;99.90;;;;;;4981152;28;20174;-73
2023/02/25 01:16:24;;;;;;;12.47;10.57;;;9.80;99.90;;;;;;4982809;28;20252;-73
2023/02/25 01:19:00;;;;;;;12.95;11.15;;;9.80;99.90;;;;;;4981014;28;21067;-73
2023/02/25 01:21:35;;;;;;;13.50;10.87;;;9.80;99.90;;;;;;4984196;28;20507;-72
2023/02/25 01:24:16;;;;;;;12.68;11.32;;;9.80;99.90;;;;;;4983771;28;20415;-72
2023/02/25 01:26:44;;;;;;;11.97;10.17;;;9.80;99.90;;;;;;4985699;28;20185;-72
2023/02/25 01:29:16;;;;;;;11.23;9.87;;;9.70;99.90;;;;;;4986943;28;20759;-72
2023/02/25 01:31:43;;;;;;;11.43;9.77;;;9.80;99.90;;;;;;4968225;28;20272;-72
2023/02/25 01:34:16;;;;;;;16.63;10.20;;;9.70;99.90;;;;;;4975858;28;20189;-73
2023/02/25 01:36:43;;;;;;;12.30;10.17;;;9.70;99.90;;;;;;4987351;28;20202;-72
2023/02/25 01:39:12;;;;;;;12.40;11.20;;;9.70;99.90;;;;;;4963181;28;20412;-72
2023/02/25 01:41:41;;;;;;;12.10;10.70;;;9.70;99.90;;;;;;4981836;28;21170;-72
2023/02/25 01:44:32;;;;;;;11.13;9.73;;;9.60;99.90;;;;;;4967272;28;22045;-72
2023/02/25 01:47:03;;;;;;;10.73;9.67;;;9.60;99.90;;;;;;4983896;28;20224;-72
2023/02/25 01:49:37;;;;;;;12.23;10.43;;;9.60;99.90;;;;;;4964097;28;20197;-73
2023/02/25 01:52:22;;;;;;;12.97;10.00;;;9.60;99.90;;;;;;4961986;28;20189;-72
2023/02/25 01:54:56;;;;;;;12.15;10.95;;;9.60;99.90;;;;;;4961891;28;20410;-72
2023/02/25 01:57:24;;;;;;;11.70;9.80;;;9.60;99.90;;;;;;4965876;28;20284;-72
2023/02/25 01:59:53;;;;;;;11.53;9.27;;;9.60;99.90;;;;;;4968286;28;20201;-72
2023/02/25 02:02:22;;;;;;;17.57;11.50;;;9.50;99.90;;;;;;4968659;28;20182;-72
2023/02/25 02:04:51;;;;;;;12.50;11.30;;;9.50;99.90;;;;;;4982400;28;20829;-72
2023/02/25 02:07:21;;;;;;;12.07;10.60;;;9.50;99.90;;;;;;4981206;28;20453;-72
2023/02/25 02:09:56;;;;;;;12.30;11.00;;;9.50;99.90;;;;;;4946721;28;20185;-72
2023/02/25 02:12:35;;;;;;;12.77;11.37;;;9.50;99.90;;;;;;4968267;28;20189;-72
2023/02/25 02:15:07;;;;;;;17.03;10.90;;;9.60;99.90;;;;;;4966638;28;20216;-72
2023/02/25 02:18:02;;;;;;;12.30;10.27;;;9.60;99.90;;;;;;4980114;28;20217;-72
2023/02/25 02:21:12;;;;;;;14.60;11.23;;;9.60;99.90;;;;;;4980882;28;20268;-72
2023/02/25 02:24:17;;;;;;;13.30;11.00;;;9.50;99.90;;;;;;4939809;28;20653;-72
2023/02/25 02:27:06;;;;;;;12.17;10.50;;;9.50;99.90;;;;;;4967345;28;20560;-72
2023/02/25 02:30:16;;;;;;;12.23;10.47;;;9.40;99.90;;;;;;4983239;28;20652;-72
2023/02/25 02:33:21;;;;;;;14.77;10.60;;;9.30;99.90;;;;;;4925038;29;20295;-72
2023/02/25 02:36:19;;;;;;;12.20;9.83;;;9.20;99.90;;;;;;4904381;29;20208;-72
2023/02/25 02:39:00;;;;;;;11.17;10.00;;;9.20;99.90;;;;;;4979542;28;20345;-72
2023/02/25 02:41:35;;;;;;;11.00;9.73;;;9.10;99.90;;;;;;4967210;28;20190;-72
2023/02/25 02:44:21;;;;;;;11.63;10.43;;;9.10;99.90;;;;;;4983218;28;20800;-73
2023/02/25 02:47:09;;;;;;;11.90;10.17;;;9.10;99.90;;;;;;4978098;28;20186;-72
2023/02/25 02:50:01;;;;;;;11.33;9.83;;;9.10;99.90;;;;;;4967703;28;20202;-72
2023/02/25 02:52:33;;;;;;;11.77;9.40;;;9.10;99.90;;;;;;4982079;28;20247;-72
2023/02/25 02:55:45;;;;;;;13.93;10.10;;;9.00;99.90;;;;;;4966344;28;20181;-72
2023/02/25 02:58:54;;;;;;;11.13;10.00;;;8.90;99.90;;;;;;4940643;28;20248;-73
2023/02/25 03:01:29;;;;;;;10.83;9.57;;;8.90;99.90;;;;;;4959732;28;20248;-73
2023/02/25 03:04:04;;;;;;;11.47;9.93;;;8.80;99.90;;;;;;4966439;28;20284;-72
2023/02/25 03:06:43;;;;;;;11.03;9.83;;;8.80;99.90;;;;;;4980070;28;20204;-72
2023/02/25 03:09:19;;;;;;;10.37;9.33;;;8.80;99.90;;;;;;4979971;28;20193;-72
2023/02/25 03:11:46;;;;;;;10.57;9.47;;;8.80;99.90;;;;;;4964305;28;20197;-73
2023/02/25 03:14:13;;;;;;;10.67;9.47;;;8.80;99.90;;;;;;4981277;28;20197;-72
2023/02/25 03:17:08;;;;;;;11.15;10.05;;;8.80;99.90;;;;;;4963877;28;20501;-72
2023/02/25 03:20:05;;;;;;;12.27;9.60;;;8.70;99.90;;;;;;4979078;28;20198;-72
2023/02/25 03:22:38;;;;;;;11.83;9.63;;;8.80;99.90;;;;;;4980095;28;20190;-72
2023/02/25 03:25:37;;;;;;;10.27;9.27;;;8.80;99.90;;;;;;4982050;28;20185;-72
2023/02/25 03:28:22;;;;;;;14.33;10.33;;;8.90;99.90;;;;;;4981072;28;20205;-72
2023/02/25 03:31:15;;;;;;;10.60;9.43;;;8.90;99.90;;;;;;4983108;28;20205;-72
2023/02/25 03:34:00;;;;;;;11.10;9.23;;;8.90;99.90;;;;;;4968683;28;20185;-72
2023/02/25 03:36:43;;;;;;;11.50;10.50;;;8.90;99.90;;;;;;4980726;28;20415;-72
2023/02/25 03:39:18;;;;;;;11.50;10.30;;;8.90;99.90;;;;;;4968531;28;20192;-72
2023/02/25 03:41:53;;;;;;;13.03;10.10;;;8.90;99.90;;;;;;4965592;28;20197;-72
2023/02/25 03:44:27;;;;;;;12.00;9.57;;;8.90;99.90;;;;;;4981550;28;20185;-72
2023/02/25 03:46:56;;;;;;;13.33;10.17;;;8.90;99.90;;;;;;4979104;28;20742;-72
2023/02/25 03:49:32;;;;;;;11.53;10.33;;;8.90;99.90;;;;;;4963670;28;20186;-72
2023/02/25 03:52:03;;;;;;;11.30;9.87;;;8.90;99.90;;;;;;4979943;28;20235;-72
2023/02/25 03:54:29;;;;;;;11.07;9.93;;;8.80;99.90;;;;;;4983624;28;20209;-72
2023/02/25 03:56:56;;;;;;;13.20;9.87;;;8.90;99.90;;;;;;4968721;28;20205;-72
2023/02/25 03:59:26;;;;;;;14.03;10.00;;;8.90;99.90;;;;;;4965316;28;20197;-72
2023/02/25 04:01:56;;;;;;;12.67;11.30;;;8.90;99.90;;;;;;4966620;28;20698;-72
2023/02/25 04:04:22;;;;;;;12.17;10.93;;;8.90;99.90;;;;;;4962998;28;20260;-72
2023/02/25 04:06:48;;;;;;;15.00;11.53;;;9.00;99.90;;;;;;4964023;28;20200;-72
2023/02/25 04:09:14;;;;;;;11.63;10.40;;;9.00;99.90;;;;;;4976051;28;20193;-72
2023/02/25 04:11:41;;;;;;;12.40;10.40;;;9.00;99.90;;;;;;4963700;28;20277;-72
2023/02/25 04:14:07;;;;;;;12.93;11.57;;;9.10;99.90;;;;;;4982427;28;20192;-72
2023/02/25 04:16:33;;;;;;;13.20;11.00;;;9.10;99.90;;;;;;4984217;28;20256;-73
2023/02/25 04:19:00;;;;;;;13.43;11.47;;;9.20;99.90;;;;;;4981604;28;20252;-72
2023/02/25 04:21:34;;;;;;;13.13;11.63;;;9.20;99.90;;;;;;4959161;28;20190;-72
2023/02/25 04:24:04;;;;;;;14.60;11.80;;;9.30;99.90;;;;;;4982136;28;20548;-72
2023/02/25 04:26:30;;;;;;;12.90;11.57;;;9.30;99.90;;;;;;4979623;28;20216;-72
2023/02/25 04:28:56;;;;;;;16.93;11.57;;;9.30;99.90;;;;;;4965635;28;20248;-72
2023/02/25 04:31:23;;;;;;;12.63;11.33;;;9.30;99.90;;;;;;4981937;28;20233;-73
2023/02/25 04:33:49;;;;;;;15.37;11.90;;;9.20;99.90;;;;;;4981841;28;20193;-72
2023/02/25 04:36:30;;;;;;;17.33;11.73;;;9.20;99.90;;;;;;4972251;28;20240;-72
2023/02/25 04:38:58;;;;;;;15.47;11.83;;;9.20;99.90;;;;;;4963976;28;20182;-72
2023/02/25 04:41:34;;;;;;;13.63;12.23;;;9.20;99.90;;;;;;4976822;28;20190;-72
2023/02/25 04:44:02;;;;;;;13.50;12.03;;;9.20;99.90;;;;;;4978146;28;20185;-72
2023/02/25 04:46:29;;;;;;;13.30;12.00;;;9.20;99.90;;;;;;4968938;28;20217;-72
2023/02/25 04:48:56;;;;;;;13.43;11.47;;;9.20;99.90;;;;;;4962820;28;20545;-72
2023/02/25 04:51:22;;;;;;;13.30;11.77;;;9.20;99.90;;;;;;4981193;28;20216;-72
2023/02/25 04:53:49;;;;;;;15.47;12.50;;;9.20;99.90;;;;;;4985293;28;20190;-72
2023/02/25 04:56:15;;;;;;;16.93;12.40;;;9.20;99.90;;;;;;4977679;28;20300;-72
2023/02/25 04:58:41;;;;;;;14.27;12.17;;;9.30;99.90;;;;;;4978648;28;20192;-72
2023/02/25 05:01:09;;;;;;;15.97;13.10;;;9.30;99.90;;;;;;4978766;28;20196;-72
2023/02/25 05:03:37;;;;;;;14.53;13.03;;;9.30;99.90;;;;;;4964320;28;20194;-72
2023/02/25 05:06:05;;;;;;;14.97;13.30;;;9.40;99.90;;;;;;4979944;28;20201;-72
2023/02/25 05:08:33;;;;;;;17.10;13.67;;;9.40;99.90;;;;;;4979720;28;20747;-72
2023/02/25 05:11:00;;;;;;;17.00;15.20;;;9.60;99.90;;;;;;4982839;28;20202;-72
2023/02/25 05:13:28;;;;;;;16.10;14.40;;;9.80;99.90;;;;;;4968222;28;20347;-73
2023/02/25 05:16:11;;;;;;;17.13;15.33;;;9.80;99.90;;;;;;4982207;28;20580;-72
2023/02/25 05:18:40;;;;;;;18.13;15.17;;;9.80;99.90;;;;;;4964561;28;20785;-72
2023/02/25 05:21:19;;;;;;;17.53;15.00;;;9.70;99.90;;;;;;4965745;28;20537;-72
2023/02/25 05:23:49;;;;;;;19.07;15.43;;;9.80;99.90;;;;;;4980689;28;20182;-72
2023/02/25 05:26:22;;;;;;;23.53;15.87;;;9.80;99.90;;;;;;4984961;28;20216;-72
2023/02/25 05:28:54;;;;;;;19.63;16.40;;;9.70;99.90;;;;;;4976429;28;20214;-72
2023/02/25 05:31:23;;;;;;;19.43;15.30;;;9.70;99.90;;;;;;4978848;28;20188;-72
2023/02/25 05:33:49;;;;;;;16.37;14.50;;;9.70;99.90;;;;;;4968321;28;20208;-72
2023/02/25 05:36:16;;;;;;;16.90;14.67;;;9.70;99.90;;;;;;4985389;28;20232;-72
2023/02/25 05:38:44;;;;;;;17.27;14.53;;;9.80;99.90;;;;;;4986197;28;20193;-72
2023/02/25 05:41:12;;;;;;;16.83;15.07;;;9.80;99.90;;;;;;4978117;28;20191;-72
2023/02/25 05:43:39;;;;;;;16.80;14.50;;;9.80;99.90;;;;;;4967219;28;20208;-73
2023/02/25 05:46:10;;;;;;;17.20;14.23;;;9.80;99.90;;;;;;4967653;28;20190;-72
2023/02/25 05:48:38;;;;;;;15.47;13.87;;;9.90;99.90;;;;;;4969323;28;20225;-72
2023/02/25 05:51:10;;;;;;;17.33;15.17;;;9.90;99.90;;;;;;4957214;28;20289;-72
2023/02/25 05:53:37;;;;;;;15.80;14.20;;;9.90;99.90;;;;;;4984579;28;20225;-72
2023/02/25 05:56:12;;;;;;;18.43;14.90;;;10.00;99.90;;;;;;4984856;28;20225;-72
2023/02/25 05:58:38;;;;;;;16.53;14.83;;;10.00;99.90;;;;;;4977947;28;20622;-72
2023/02/25 06:01:17;;;;;;;16.93;14.33;;;10.10;99.90;;;;;;4970517;28;20256;-72
2023/02/25 06:03:47;;;;;;;16.23;14.17;;;10.10;99.90;;;;;;4960901;28;20205;-73
2023/02/25 06:06:19;;;;;;;14.57;12.97;;;10.10;99.90;;;;;;4972610;28;20616;-72
2023/02/25 06:08:45;;;;;;;14.93;12.57;;;10.00;99.90;;;;;;4978681;28;20194;-72
2023/02/25 06:11:19;;;;;;;16.50;12.87;;;9.90;99.90;;;;;;4980589;28;20248;-72
2023/02/25 06:13:51;;;;;;;14.80;12.57;;;9.70;99.90;;;;;;4966083;28;20348;-72
2023/02/25 06:16:19;;;;;;;12.30;11.00;;;9.60;99.90;;;;;;4962607;28;20370;-73
2023/02/25 06:18:48;;;;;;;12.73;11.40;;;9.50;99.90;;;;;;4960711;28;20564;-72
2023/02/25 06:21:15;;;;;;;13.67;12.17;;;9.40;99.90;;;;;;4965827;28;20599;-72
2023/02/25 06:23:43;;;;;;;14.23;12.20;;;9.40;99.90;;;;;;4978354;28;20366;-73
2023/02/25 06:26:12;;;;;;;15.43;12.23;;;9.50;99.90;;;;;;4965042;28;20288;-72
2023/02/25 06:28:39;;;;;;;17.00;12.43;;;9.70;99.90;;;;;;4965405;28;20202;-72
2023/02/25 06:31:17;;;;;;;18.37;12.40;;;9.70;99.90;;;;;;4964344;28;20829;-73
2023/02/25 06:33:45;;;;;;;14.30;12.33;;;9.80;99.90;;;;;;4983034;28;20193;-72
2023/02/25 06:36:13;;;;;;;16.20;12.47;;;10.10;99.90;;;;;;4983940;28;20280;-72
2023/02/25 06:38:39;;;;;;;14.27;12.73;;;10.20;99.90;;;;;;4983182;28;20213;-72
2023/02/25 06:41:14;;;;;;;19.27;12.57;;;10.10;99.90;;;;;;4971201;28;20201;-72
2023/02/25 06:43:41;;;;;;;13.43;11.97;;;10.00;99.90;;;;;;4977381;28;20193;-72
2023/02/25 06:46:10;;;;;;;14.53;13.13;;;9.90;99.90;;;;;;4966563;28;20410;-72
2023/02/25 06:48:37;;;;;;;14.83;11.90;;;9.90;99.90;;;;;;4975213;28;20208;-72
2023/02/25 06:51:08;;;;;;;13.07;11.63;;;9.80;99.90;;;;;;4981782;28;20193;-72
2023/02/25 06:53:43;;;;;;;13.47;11.23;;;9.80;99.90;;;;;;4938549;28;20719;-72
2023/02/25 06:56:13;;;;;;;14.27;10.90;;;9.80;99.90;;;;;;4966561;28;20213;-72
2023/02/25 06:58:40;;;;;;;12.63;11.33;;;10.10;99.90;;;;;;4963491;28;20202;-72
2023/02/25 07:01:10;;;;;;;12.83;11.43;;;10.30;99.90;;;;;;4980567;28;20206;-72
2023/02/25 07:03:36;;;;;;;14.33;12.10;;;10.40;99.90;;;;;;4983071;28;20194;-72
2023/02/25 07:06:03;;;;;;;14.90;10.87;;;10.20;99.90;;;;;;4979687;28;20273;-72
2023/02/25 07:08:29;;;;;;;12.93;10.63;;;10.10;99.90;;;;;;4978801;28;21044;-72
2023/02/25 07:11:08;;;;;;;11.97;10.67;;;10.00;99.90;;;;;;4981571;28;20296;-72
2023/02/25 07:13:34;;;;;;;11.40;10.20;;;10.00;99.90;;;;;;4977317;28;20186;-72
2023/02/25 07:16:00;;;;;;;12.03;10.27;;;9.90;99.90;;;;;;4982771;28;20248;-72
2023/02/25 07:18:26;;;;;;;13.63;10.47;;;10.00;99.90;;;;;;4980456;28;20190;-72
2023/02/25 07:20:53;;;;;;;12.47;10.60;;;10.00;99.90;;;;;;4950161;28;20698;-72
2023/02/25 07:23:19;;;;;;;10.10;9.10;;;10.00;99.90;;;;;;4979725;28;20189;-72
2023/02/25 07:25:45;;;;;;;14.20;10.03;;;10.20;99.90;;;;;;4980542;28;20556;-72
2023/02/25 07:28:12;;;;;;;12.33;9.80;;;10.30;99.90;;;;;;4976359;28;20604;-73
2023/02/25 07:30:38;;;;;;;20.90;9.93;;;10.30;99.90;;;;;;4964277;28;20641;-72
2023/02/25 07:33:05;;;;;;;13.00;9.57;;;10.40;99.90;;;;;;4979560;28;20193;-72
2023/02/25 07:35:32;;;;;;;12.63;10.17;;;10.40;99.90;;;;;;4984666;28;20673;-72
2023/02/25 07:37:59;;;;;;;10.43;9.00;;;10.40;99.90;;;;;;4969834;28;20615;-72
2023/02/25 07:40:25;;;;;;;10.77;9.40;;;10.50;99.90;;;;;;4979861;28;20193;-72
2023/02/25 07:42:51;;;;;;;14.90;9.10;;;10.50;99.90;;;;;;4977805;28;20942;-72
2023/02/25 07:45:18;;;;;;;11.43;9.57;;;10.60;99.90;;;;;;4945039;28;20230;-72
2023/02/25 07:47:44;;;;;;;10.47;9.37;;;10.70;99.90;;;;;;4963476;28;20267;-72
2023/02/25 07:50:12;;;;;;;14.93;9.83;;;10.70;99.90;;;;;;4982127;28;20213;-72
2023/02/25 07:52:38;;;;;;;13.83;10.00;;;10.80;99.90;;;;;;4981741;28;20284;-72
2023/02/25 07:55:06;;;;;;;14.70;10.87;;;10.90;99.90;;;;;;4976056;28;20197;-72
2023/02/25 07:57:32;;;;;;;12.97;10.97;;;11.10;99.90;;;;;;4964498;28;20579;-72
2023/02/25 07:59:58;;;;;;;12.13;10.83;;;11.20;99.90;;;;;;4979455;28;20595;-72
2023/02/25 08:02:25;;;;;;;13.00;10.52;;;11.30;99.90;;;;;;4962616;28;20421;-72
2023/02/25 08:04:51;;;;;;;11.03;10.03;;;11.30;99.90;;;;;;4974348;28;20201;-72
2023/02/25 08:07:17;;;;;;;13.23;9.93;;;11.30;99.90;;;;;;4978685;28;20206;-72
2023/02/25 08:09:44;;;;;;;13.50;9.73;;;11.40;99.90;;;;;;4968865;28;20276;-72
2023/02/25 08:12:10;;;;;;;11.47;10.27;;;11.50;99.90;;;;;;4983975;28;20212;-72
2023/02/25 08:14:37;;;;;;;10.77;9.67;;;11.50;99.90;;;;;;4941406;28;20228;-72
2023/02/25 08:17:04;;;;;;;10.43;8.97;;;11.50;99.90;;;;;;4976236;28;20224;-72
2023/02/25 08:19:30;;;;;;;11.40;9.40;;;11.30;99.90;;;;;;4975115;28;20248;-72
2023/02/25 08:21:56;;;;;;;11.20;9.20;;;11.40;99.90;;;;;;4955940;28;20592;-72
2023/02/25 08:24:23;;;;;;;10.07;9.00;;;11.40;99.90;;;;;;4962115;28;20189;-72
2023/02/25 08:26:49;;;;;;;10.23;9.13;;;11.50;99.90;;;;;;4968378;28;20185;-72
2023/02/25 08:29:15;;;;;;;11.53;9.03;;;11.50;99.90;;;;;;4959663;28;20200;-72
2023/02/25 08:31:42;;;;;;;10.67;9.57;;;11.70;99.90;;;;;;4977572;28;20945;-72
2023/02/25 08:34:09;;;;;;;14.83;10.63;;;11.90;99.90;;;;;;4982603;28;20676;-72
2023/02/25 08:36:36;;;;;;;10.57;9.47;;;12.00;99.90;;;;;;4958990;28;20253;-72
2023/02/25 08:39:02;;;;;;;11.30;9.60;;;11.90;99.90;;;;;;4974669;28;20200;-72
2023/02/25 08:41:29;;;;;;;11.43;9.30;;;11.80;99.90;;;;;;4963129;28;20721;-73
2023/02/25 08:43:59;;;;;;;10.33;9.23;;;11.70;99.90;;;;;;4948058;28;20182;-72
2023/02/25 08:46:29;;;;;;;9.77;8.40;;;11.80;99.90;;;;;;4980291;28;20189;-73
2023/02/25 08:48:56;;;;;;;11.03;9.73;;;11.70;99.90;;;;;;4979103;28;20186;-72
2023/02/25 08:51:34;;;;;;;11.83;10.00;;;12.00;99.90;;;;;;4966476;28;20292;-72
2023/02/25 08:54:10;;;;;;;11.27;9.73;;;12.00;99.90;;;;;;4980026;28;20280;-72
2023/02/25 08:56:43;;;;;;;12.63;8.83;;;12.10;99.90;;;;;;4968570;28;20327;-72
2023/02/25 08:59:14;;;;;;;9.23;7.80;;;11.80;99.90;;;;;;4983489;28;20213;-72
2023/02/25 09:01:43;;;;;;;8.40;7.47;;;11.60;99.90;;;;;;4982026;28;20233;-72
2023/02/25 09:04:22;;;;;;;11.97;9.90;;;11.50;99.90;;;;;;4964590;28;20186;-72
2023/02/25 09:06:51;;;;;;;10.83;9.70;;;12.10;99.90;;;;;;4958650;28;20311;-73
2023/02/25 09:09:19;;;;;;;11.50;10.20;;;12.50;99.90;;;;;;4973844;28;20942;-73
2023/02/25 09:11:47;;;;;;;13.57;10.73;;;12.50;99.90;;;;;;4964803;28;20552;-72
2023/02/25 09:14:14;;;;;;;14.53;11.40;;;13.00;99.90;;;;;;4980461;28;20728;-73
2023/02/25 09:16:40;;;;;;;13.07;11.43;;;13.30;99.90;;;;;;4986602;28;20251;-73
2023/02/25 09:19:07;;;;;;;13.50;10.30;;;13.20;99.90;;;;;;4964922;28;20275;-72
2023/02/25 09:21:35;;;;;;;14.73;10.57;;;13.00;99.90;;;;;;4981360;28;20193;-72
2023/02/25 09:24:01;;;;;;;15.07;10.47;;;13.00;99.90;;;;;;4980019;28;20569;-72
2023/02/25 09:26:27;;;;;;;13.70;10.23;;;12.80;99.90;;;;;;4950294;28;20212;-72
2023/02/25 09:28:53;;;;;;;13.63;9.63;;;12.90;99.90;;;;;;4981531;28;20231;-72
2023/02/25 09:31:20;;;;;;;13.37;10.37;;;12.70;99.90;;;;;;4974983;28;20181;-72
2023/02/25 09:33:46;;;;;;;14.53;10.83;;;12.70;99.90;;;;;;4967117;28;20237;-73
2023/02/25 09:36:17;;;;;;;12.50;11.17;;;12.70;99.90;;;;;;4980459;28;20213;-72
2023/02/25 09:38:46;;;;;;;13.90;11.40;;;12.70;99.90;;;;;;4979692;28;20748;-72
2023/02/25 09:41:40;;;;;;;19.57;12.10;;;12.80;99.90;;;;;;4983245;28;20192;-72
2023/02/25 09:44:37;;;;;;;14.30;10.63;;;12.70;99.90;;;;;;4980252;28;20603;-73
2023/02/25 09:47:16;;;;;;;13.63;11.87;;;12.70;99.90;;;;;;4948993;28;20948;-73
2023/02/25 09:50:01;;;;;;;12.93;11.03;;;12.80;99.90;;;;;;4948350;28;20200;-72
2023/02/25 09:52:35;;;;;;;15.63;10.40;;;12.80;99.90;;;;;;4976229;28;20221;-73
2023/02/25 09:55:18;;;;;;;17.57;10.57;;;12.80;99.90;;;;;;4980162;28;20192;-72
2023/02/25 09:58:10;;;;;;;14.43;10.97;;;12.90;99.90;;;;;;4980476;28;20299;-73
2023/02/25 10:01:07;;;;;;;12.60;10.77;;;13.00;99.90;;;;;;4985203;28;20201;-72
2023/02/25 10:03:54;;;;;;;14.10;9.80;;;13.10;99.90;;;;;;4970963;28;20182;-72
2023/02/25 10:06:41;;;;;;;13.90;9.93;;;13.10;99.90;;;;;;4983721;28;20189;-72
2023/02/25 10:09:36;;;;;;;10.83;9.70;;;13.00;99.90;;;;;;4983511;28;20590;-73
2023/02/25 10:12:48;;;;;;;9.67;8.57;;;12.90;99.90;;;;;;4982471;28;20296;-73
2023/02/25 10:15:45;;;;;;;11.20;9.20;;;12.80;99.90;;;;;;4934629;28;20251;-73
2023/02/25 10:18:35;;;;;;;15.90;10.27;;;13.00;99.90;;;;;;4965801;28;20205;-72
2023/02/25 10:21:38;;;;;;;11.77;10.00;;;13.10;99.90;;;;;;4965041;28;20201;-72
2023/02/25 10:24:28;;;;;;;11.47;9.77;;;13.20;99.90;;;;;;4986221;28;20188;-72
2023/02/25 10:27:10;;;;;;;12.90;9.57;;;13.30;99.90;;;;;;4981397;28;20774;-72
2023/02/25 10:29:48;;;;;;;10.07;9.07;;;13.10;99.90;;;;;;4983591;28;20181;-72
2023/02/25 10:32:30;;;;;;;10.73;9.70;;;13.10;99.90;;;;;;4980724;28;20186;-73
2023/02/25 10:35:09;;;;;;;13.00;9.30;;;13.30;99.90;;;;;;4981474;28;20493;-73
2023/02/25 10:37:39;;;;;;;13.67;8.50;;;13.50;99.90;;;;;;4978707;28;20217;-72
2023/02/25 10:40:13;;;;;;;11.20;8.37;;;13.50;99.90;;;;;;4979396;28;20251;-73
2023/02/25 10:42:40;;;;;;;9.57;8.00;;;13.50;99.90;;;;;;4983374;28;20189;-72
2023/02/25 10:45:12;;;;;;;9.90;8.90;;;13.30;99.90;;;;;;4947720;28;20607;-73
2023/02/25 10:47:45;;;;;;;12.70;9.77;;;13.40;99.90;;;;;;4969157;28;20185;-72
2023/02/25 10:50:26;;;;;;;9.97;8.70;;;13.40;99.90;;;;;;4982912;28;20205;-72
2023/02/25 10:53:17;;;;;;;11.43;8.80;;;13.30;99.90;;;;;;4983515;28;20256;-73
2023/02/25 10:55:43;;;;;;;10.03;8.97;;;13.20;99.90;;;;;;4965580;28;20193;-72
2023/02/25 10:58:43;;;;;;;12.32;9.25;;;13.20;99.90;;;;;;4979992;28;20426;-72
2023/02/25 11:01:22;;;;;;;10.90;9.17;;;13.30;99.90;;;;;;4984323;28;20211;-73
2023/02/25 11:04:00;;;;;;;10.50;9.40;;;13.40;99.90;;;;;;4977409;28;20196;-72
2023/02/25 11:06:42;;;;;;;9.43;8.43;;;13.40;99.90;;;;;;4982745;28;20197;-72
2023/02/25 11:09:20;;;;;;;12.17;9.53;;;13.40;99.90;;;;;;4962663;28;20276;-72
2023/02/25 11:12:09;;;;;;;11.23;9.93;;;13.30;99.90;;;;;;4973856;28;20447;-72
2023/02/25 11:14:38;;;;;;;10.80;9.43;;;13.30;99.90;;;;;;4981978;28;20201;-72
2023/02/25 11:17:21;;;;;;;11.03;9.40;;;13.20;99.90;;;;;;4969048;28;20206;-72
2023/02/25 11:19:58;;;;;;;12.90;9.33;;;13.40;99.90;;;;;;4976178;28;20190;-72
2023/02/25 11:22:43;;;;;;;11.10;8.63;;;13.40;99.90;;;;;;4977120;28;20197;-73
2023/02/25 11:25:31;;;;;;;10.47;8.50;;;13.40;99.90;;;;;;4984165;28;20203;-73
2023/02/25 11:27:58;;;;;;;14.50;9.00;;;13.40;99.90;;;;;;4983111;28;20185;-73
2023/02/25 11:30:34;;;;;;;11.23;9.27;;;13.30;99.90;;;;;;4985781;28;20205;-73
2023/02/25 11:33:12;;;;;;;14.43;9.60;;;13.40;99.90;;;;;;4967731;28;20224;-73
2023/02/25 11:35:39;;;;;;;13.43;9.37;;;13.30;99.90;;;;;;4967711;28;20232;-72
2023/02/25 11:38:25;;;;;;;10.57;8.73;;;13.30;99.90;;;;;;4983303;28;20914;-73
2023/02/25 11:40:51;;;;;;;11.80;9.07;;;13.30;99.90;;;;;;4965789;28;20207;-72
2023/02/25 11:43:37;;;;;;;10.80;9.13;;;13.30;99.90;;;;;;4984833;28;20198;-73
2023/02/25 11:46:07;;;;;;;10.73;8.67;;;13.20;99.90;;;;;;4981059;28;20262;-72
2023/02/25 11:48:59;;;;;;;12.57;8.03;;;13.10;99.90;;;;;;4971075;28;20196;-73
2023/02/25 11:51:45;;;;;;;9.00;7.93;;;12.90;99.90;;;;;;4966866;28;20189;-73
2023/02/25 11:54:29;;;;;;;10.27;8.23;;;13.00;99.90;;;;;;4970665;28;20999;-73
2023/02/25 11:57:12;;;;;;;10.33;8.57;;;13.00;99.90;;;;;;4976329;28;20268;-73
2023/02/25 11:59:53;;;;;;;10.60;9.13;;;12.80;99.90;;;;;;5004369;28;20180;-73
2023/02/25 12:03:04;;;;;;;21.73;9.40;;;13.00;99.90;;;;;;4965978;28;20195;-72
2023/02/25 12:06:16;;;;;;;14.50;10.13;;;13.20;99.90;;;;;;4968942;28;20235;-73
2023/02/25 12:09:33;;;;;;;9.63;8.40;;;13.30;99.90;;;;;;4980148;28;20268;-72
2023/02/25 12:12:17;;;;;;;12.30;8.67;;;13.20;99.90;;;;;;4953293;28;20728;-73
2023/02/25 12:15:35;;;;;;;12.57;9.03;;;13.30;99.90;;;;;;4981192;28;20177;-72
2023/02/25 12:18:28;;;;;;;11.90;8.70;;;13.30;99.90;;;;;;4971812;28;20521;-73
2023/02/25 12:21:51;;;;;;;12.07;8.70;;;13.10;99.90;;;;;;4966736;28;20225;-72
2023/02/25 12:25:01;;;;;;;10.23;8.40;;;13.10;99.90;;;;;;4988071;28;20232;-72
2023/02/25 12:28:11;;;;;;;20.17;15.53;;;13.20;99.90;;;;;;4895356;29;20842;-73
2023/02/25 12:31:01;;;;;;;9.80;7.37;;;13.70;99.90;;;;;;4909721;29;20223;-72
2023/02/25 12:33:50;;;;;;;8.67;7.10;;;14.10;99.90;;;;;;4954358;28;20303;-73
2023/02/25 12:36:33;;;;;;;9.43;7.40;;;14.30;99.90;;;;;;4979030;28;20296;-73
2023/02/25 12:39:22;;;;;;;8.23;6.97;;;14.40;99.90;;;;;;4969779;28;20205;-73
2023/02/25 12:42:22;;;;;;;7.77;6.90;;;14.50;99.90;;;;;;4990189;28;20178;-73
2023/02/25 12:45:38;;;;;;;9.33;7.87;;;14.50;99.90;;;;;;4988023;28;20192;-73
2023/02/25 12:48:58;;;;;;;9.87;7.30;;;14.60;99.90;;;;;;4972005;28;20183;-73
2023/02/25 12:51:44;;;;;;;8.93;7.40;;;14.50;99.90;;;;;;4999631;28;20217;-73
2023/02/25 12:54:57;;;;;;;8.50;7.57;;;14.50;99.90;;;;;;4950042;28;20177;-73
2023/02/25 12:57:47;;;;;;;9.93;7.20;;;14.70;99.90;;;;;;4969544;28;20213;-73
2023/02/25 13:00:41;;;;;;;7.83;6.27;;;14.90;99.90;;;;;;4974157;28;20782;-73
2023/02/25 13:04:00;;;;;;;8.70;7.00;;;14.70;99.90;;;;;;4989054;28;20192;-73
2023/02/25 13:07:23;;;;;;;8.20;6.97;;;14.60;99.90;;;;;;4966773;28;20240;-73
2023/02/25 13:10:08;;;;;;;7.53;6.77;;;14.50;99.90;;;;;;4978221;28;20201;-73
2023/02/25 13:13:08;;;;;;;11.70;7.40;;;14.40;99.90;;;;;;4985524;28;20189;-73
2023/02/25 13:16:14;;;;;;;10.17;7.63;;;14.40;99.90;;;;;;4972249;28;20242;-73
2023/02/25 13:19:05;;;;;;;7.00;6.30;;;14.60;99.90;;;;;;4971749;28;20538;-73
2023/02/25 13:22:19;;;;;;;8.17;6.37;;;14.60;99.90;;;;;;4963968;28;20178;-73